Time;durP1;ratioP1;P1;durP2;ratioP2;P2;SDS_P1;SDS_P2;PMS_P1;PMS_P2;Temp;Humidity;BMP_temperature;BMP_pressure;BME280_temperature;BME280_humidity;BME280_pressure;Samples;Min_cycle;Max_cycle;Signal;HPM_P1;HPM_P2
2022/04/13 00:00:56;;;;;;;36.60;14.38;;;;;;;;;;4938779;29;20027;-63
2022/04/13 00:03:22;;;;;;;26.83;13.70;;;;;;;;;;4956140;29;20055;-63
2022/04/13 00:05:48;;;;;;;23.08;12.85;;;;;;;;;;4956063;29;20031;-63
2022/04/13 00:08:15;;;;;;;35.72;16.65;;;;;;;;;;4956004;29;20027;-63
2022/04/13 00:10:43;;;;;;;34.17;17.67;;;;;;;;;;4955954;29;20046;-63
2022/04/13 00:13:09;;;;;;;29.75;15.43;;;;;;;;;;4955907;29;20119;-64
2022/04/13 00:15:37;;;;;;;30.00;14.38;;;;;;;;;;4938617;29;20575;-62
2022/04/13 00:18:07;;;;;;;27.35;14.55;;;;;;;;;;4955748;29;20132;-65
2022/04/13 00:20:34;;;;;;;27.58;14.32;;;;;;;;;;4938372;29;20357;-63
2022/04/13 00:23:00;;;;;;;29.52;15.25;;;;;;;;;;4938576;29;20031;-63
2022/04/13 00:25:28;;;;;;;25.30;13.15;;;;;;;;;;4955740;29;20034;-63
2022/04/13 00:27:54;;;;;;;16.13;9.68;;;;;;;;;;4938399;29;20070;-63
2022/04/13 00:30:20;;;;;;;20.88;11.60;;;;;;;;;;4955861;29;20039;-63
2022/04/13 00:32:46;;;;;;;15.50;8.43;;;;;;;;;;4955622;29;20124;-63
2022/04/13 00:35:13;;;;;;;20.50;9.90;;;;;;;;;;4955470;29;20464;-63
2022/04/13 00:37:39;;;;;;;19.58;10.38;;;;;;;;;;4955233;29;20387;-64
2022/04/13 00:40:06;;;;;;;20.73;11.70;;;;;;;;;;4938235;29;20495;-64
2022/04/13 00:42:32;;;;;;;19.30;12.30;;;;;;;;;;4955343;29;20114;-63
2022/04/13 00:44:59;;;;;;;27.10;14.40;;;;;;;;;;4938165;29;20494;-63
2022/04/13 00:47:25;;;;;;;29.58;15.77;;;;;;;;;;4938169;29;20075;-63
2022/04/13 00:49:54;;;;;;;25.25;12.73;;;;;;;;;;4955327;29;20086;-63
2022/04/13 00:52:21;;;;;;;21.85;12.50;;;;;;;;;;4955319;29;20086;-63
2022/04/13 00:54:48;;;;;;;26.08;13.00;;;;;;;;;;4954774;28;20035;-65
2022/04/13 00:57:16;;;;;;;26.05;14.07;;;;;;;;;;4954822;29;20041;-65
2022/04/13 00:59:44;;;;;;;34.65;16.75;;;;;;;;;;4955201;29;20027;-62
2022/04/13 01:02:12;;;;;;;28.45;14.82;;;;;;;;;;4954952;29;20387;-62
2022/04/13 01:04:39;;;;;;;40.88;15.43;;;;;;;;;;4955142;29;20031;-62
2022/04/13 01:07:09;;;;;;;28.17;15.52;;;;;;;;;;4937854;29;20126;-61
2022/04/13 01:09:35;;;;;;;26.75;15.13;;;;;;;;;;4954807;29;20443;-62
2022/04/13 01:12:01;;;;;;;35.03;16.40;;;;;;;;;;4955058;29;20023;-61
2022/04/13 01:14:28;;;;;;;29.42;15.95;;;;;;;;;;4955022;29;20046;-61
2022/04/13 01:16:54;;;;;;;27.58;16.60;;;;;;;;;;4954951;29;20054;-62
2022/04/13 01:19:21;;;;;;;29.30;16.77;;;;;;;;;;4937664;29;20043;-62
2022/04/13 01:21:52;;;;;;;28.65;16.38;;;;;;;;;;4954975;29;20025;-61
2022/04/13 01:24:19;;;;;;;24.20;16.85;;;;;;;;;;4955043;29;20423;-61
2022/04/13 01:26:45;;;;;;;27.20;16.05;;;;;;;;;;4954637;29;20036;-61
2022/04/13 01:29:12;;;;;;;30.98;15.38;;;;;;;;;;4954793;29;20020;-62
2022/04/13 01:31:39;;;;;;;28.58;15.23;;;;;;;;;;4937610;29;20419;-61
2022/04/13 01:34:05;;;;;;;24.48;14.52;;;;;;;;;;4954947;29;20068;-61
2022/04/13 01:36:36;;;;;;;22.33;13.98;;;;;;;;;;4954673;29;20024;-61
2022/04/13 01:39:03;;;;;;;24.55;13.55;;;;;;;;;;4954597;29;20071;-61
2022/04/13 01:41:29;;;;;;;21.20;13.48;;;;;;;;;;4937549;29;20460;-61
2022/04/13 01:43:55;;;;;;;22.98;14.18;;;;;;;;;;4954765;29;20118;-61
2022/04/13 01:46:22;;;;;;;26.52;14.85;;;;;;;;;;4937419;29;20031;-61
2022/04/13 01:48:48;;;;;;;24.60;14.77;;;;;;;;;;4954724;29;20035;-61
2022/04/13 01:51:14;;;;;;;24.95;13.55;;;;;;;;;;4954590;29;20038;-62
2022/04/13 01:53:41;;;;;;;20.23;13.55;;;;;;;;;;4954701;29;20087;-62
2022/04/13 01:56:07;;;;;;;21.60;13.43;;;;;;;;;;4954669;29;20035;-63
2022/04/13 01:58:33;;;;;;;20.40;13.52;;;;;;;;;;4954145;29;20138;-61
2022/04/13 02:00:59;;;;;;;20.70;13.95;;;;;;;;;;4937372;29;20051;-62
2022/04/13 02:03:26;;;;;;;22.70;13.88;;;;;;;;;;4954654;29;20110;-62
2022/04/13 02:05:53;;;;;;;22.77;13.40;;;;;;;;;;4937345;29;20031;-62
2022/04/13 02:08:19;;;;;;;20.33;13.65;;;;;;;;;;4957894;29;20035;-63
2022/04/13 02:10:46;;;;;;;22.45;13.30;;;;;;;;;;4958168;29;20027;-63
2022/04/13 02:13:12;;;;;;;20.05;13.82;;;;;;;;;;4940861;29;20038;-63
2022/04/13 02:15:39;;;;;;;18.55;12.95;;;;;;;;;;4958140;29;20031;-62
2022/04/13 02:18:06;;;;;;;22.73;14.20;;;;;;;;;;4958098;29;20433;-62
2022/04/13 02:20:32;;;;;;;21.20;14.05;;;;;;;;;;4957974;29;20055;-61
2022/04/13 02:22:58;;;;;;;21.65;13.70;;;;;;;;;;4958209;29;20027;-62
2022/04/13 02:25:24;;;;;;;20.83;14.32;;;;;;;;;;4958159;29;20035;-63
2022/04/13 02:27:51;;;;;;;22.38;14.20;;;;;;;;;;4940632;29;20369;-63
2022/04/13 02:30:17;;;;;;;22.55;13.90;;;;;;;;;;4940629;29;20101;-61
2022/04/13 02:32:44;;;;;;;24.65;15.10;;;;;;;;;;4940527;29;20028;-60
2022/04/13 02:35:10;;;;;;;23.13;13.68;;;;;;;;;;4957460;29;20536;-60
2022/04/13 02:37:38;;;;;;;21.95;14.13;;;;;;;;;;4957500;29;20039;-60
2022/04/13 02:40:06;;;;;;;22.33;14.98;;;;;;;;;;4940437;29;20134;-60
2022/04/13 02:42:35;;;;;;;20.63;13.43;;;;;;;;;;4940361;29;20027;-60
2022/04/13 02:45:03;;;;;;;29.42;14.10;;;;;;;;;;4957575;29;20126;-60
2022/04/13 02:47:29;;;;;;;26.77;15.00;;;;;;;;;;4940121;29;20162;-60
2022/04/13 02:49:55;;;;;;;27.52;15.45;;;;;;;;;;4957460;29;20032;-60
2022/04/13 02:52:22;;;;;;;24.33;15.02;;;;;;;;;;4956574;29;20117;-60
2022/04/13 02:54:48;;;;;;;25.35;15.85;;;;;;;;;;4940138;29;20040;-60
2022/04/13 02:57:14;;;;;;;32.67;16.55;;;;;;;;;;4939853;29;20038;-60
2022/04/13 02:59:45;;;;;;;32.83;16.30;;;;;;;;;;4957360;29;20395;-60
2022/04/13 03:02:14;;;;;;;31.10;17.40;;;;;;;;;;4957252;29;20039;-60
2022/04/13 03:04:42;;;;;;;28.13;17.25;;;;;;;;;;4957217;29;20027;-60
2022/04/13 03:07:10;;;;;;;27.65;16.73;;;;;;;;;;4957210;29;20070;-61
2022/04/13 03:09:37;;;;;;;29.60;17.00;;;;;;;;;;4957099;29;20024;-60
2022/04/13 03:12:03;;;;;;;27.90;17.35;;;;;;;;;;4957061;29;20030;-60
2022/04/13 03:14:29;;;;;;;28.48;16.13;;;;;;;;;;4957062;29;20460;-61
2022/04/13 03:16:55;;;;;;;34.35;16.15;;;;;;;;;;4956869;28;20031;-61
2022/04/13 03:19:23;;;;;;;38.75;16.20;;;;;;;;;;4956366;29;20074;-62
2022/04/13 03:21:51;;;;;;;29.65;15.82;;;;;;;;;;4956862;29;20069;-61
2022/04/13 03:24:24;;;;;;;34.70;16.13;;;;;;;;;;4956948;29;20048;-61
2022/04/13 03:26:50;;;;;;;30.83;15.55;;;;;;;;;;4956826;29;20494;-62
2022/04/13 03:29:17;;;;;;;35.08;15.30;;;;;;;;;;4956650;29;20106;-61
2022/04/13 03:31:43;;;;;;;29.65;16.60;;;;;;;;;;4956721;29;20110;-60
2022/04/13 03:34:09;;;;;;;23.00;15.70;;;;;;;;;;4956743;29;20031;-63
2022/04/13 03:36:39;;;;;;;34.00;16.33;;;;;;;;;;4956538;29;20492;-63
2022/04/13 03:39:06;;;;;;;41.78;16.70;;;;;;;;;;4939294;29;20523;-62
2022/04/13 03:41:33;;;;;;;33.70;17.27;;;;;;;;;;4956259;29;20372;-64
2022/04/13 03:43:59;;;;;;;33.75;16.13;;;;;;;;;;4956481;29;20098;-64
2022/04/13 03:46:25;;;;;;;31.13;17.23;;;;;;;;;;4956456;29;20031;-63
2022/04/13 03:48:52;;;;;;;29.95;16.05;;;;;;;;;;4956655;29;20106;-63
2022/04/13 03:51:18;;;;;;;27.65;16.10;;;;;;;;;;4956364;29;20031;-63
2022/04/13 03:53:44;;;;;;;29.15;16.33;;;;;;;;;;4939060;29;20028;-60
2022/04/13 03:56:10;;;;;;;33.10;16.67;;;;;;;;;;4955982;29;20059;-63
2022/04/13 03:58:40;;;;;;;26.35;15.45;;;;;;;;;;4956100;29;20439;-62
2022/04/13 04:01:06;;;;;;;31.23;15.48;;;;;;;;;;4956149;29;20039;-62
2022/04/13 04:03:32;;;;;;;37.65;16.25;;;;;;;;;;4938917;29;20031;-62
2022/04/13 04:05:58;;;;;;;29.17;14.90;;;;;;;;;;4956078;29;20069;-63
2022/04/13 04:08:26;;;;;;;32.20;16.05;;;;;;;;;;4956068;29;20027;-63
2022/04/13 04:10:53;;;;;;;41.90;16.83;;;;;;;;;;4956306;29;20118;-63
2022/04/13 04:13:20;;;;;;;40.05;16.42;;;;;;;;;;4955650;29;20128;-62
2022/04/13 04:15:46;;;;;;;39.53;17.83;;;;;;;;;;4955903;29;20027;-62
2022/04/13 04:18:12;;;;;;;32.78;17.45;;;;;;;;;;4955856;29;20032;-62
2022/04/13 04:20:38;;;;;;;36.40;19.48;;;;;;;;;;4955854;29;20201;-62
2022/04/13 04:23:05;;;;;;;38.40;20.98;;;;;;;;;;4938452;29;20034;-62
2022/04/13 04:25:31;;;;;;;36.13;19.88;;;;;;;;;;4938486;29;20514;-62
2022/04/13 04:27:57;;;;;;;43.35;19.25;;;;;;;;;;4955678;29;20034;-63
2022/04/13 04:30:23;;;;;;;32.95;18.80;;;;;;;;;;4954899;28;20027;-62
2022/04/13 04:32:49;;;;;;;45.53;20.63;;;;;;;;;;4955903;29;20027;-62
2022/04/13 04:35:16;;;;;;;50.97;18.75;;;;;;;;;;4955581;29;20119;-62
2022/04/13 04:37:42;;;;;;;44.53;16.55;;;;;;;;;;4955620;29;20032;-62
2022/04/13 04:40:08;;;;;;;61.00;20.23;;;;;;;;;;4955502;29;20039;-62
2022/04/13 04:42:47;;;;;;;50.50;23.30;;;;;;;;;;4938113;29;20027;-63
2022/04/13 04:45:16;;;;;;;59.72;30.08;;;;;;;;;;4955412;29;20392;-63
2022/04/13 04:47:43;;;;;;;60.25;25.35;;;;;;;;;;4955282;29;20353;-63
2022/04/13 04:50:10;;;;;;;64.05;24.70;;;;;;;;;;4955339;29;20027;-63
2022/04/13 04:52:40;;;;;;;61.13;22.85;;;;;;;;;;4955309;29;20031;-62
2022/04/13 04:55:07;;;;;;;60.80;24.83;;;;;;;;;;4955264;29;20027;-63
2022/04/13 04:57:33;;;;;;;53.10;23.42;;;;;;;;;;4954800;29;20062;-63
2022/04/13 05:00:00;;;;;;;46.35;23.80;;;;;;;;;;4955200;29;20047;-63
2022/04/13 05:02:26;;;;;;;53.22;25.65;;;;;;;;;;4955026;29;20025;-62
2022/04/13 05:04:52;;;;;;;54.88;26.90;;;;;;;;;;4955165;29;20042;-63
2022/04/13 05:07:18;;;;;;;69.25;26.52;;;;;;;;;;4937797;29;20435;-62
2022/04/13 05:09:45;;;;;;;52.60;25.02;;;;;;;;;;4955100;29;20042;-62
2022/04/13 05:12:11;;;;;;;64.90;26.83;;;;;;;;;;4954970;29;20023;-62
2022/04/13 05:14:37;;;;;;;58.88;28.20;;;;;;;;;;4937799;29;20031;-63
2022/04/13 05:17:04;;;;;;;57.38;26.17;;;;;;;;;;4954938;29;20027;-62
2022/04/13 05:19:30;;;;;;;68.65;27.98;;;;;;;;;;4937508;29;20067;-63
2022/04/13 05:21:56;;;;;;;55.65;26.67;;;;;;;;;;4954540;29;20357;-64
2022/04/13 05:24:22;;;;;;;60.00;26.92;;;;;;;;;;4937571;29;20113;-64
2022/04/13 05:26:48;;;;;;;55.28;26.02;;;;;;;;;;4955071;29;20046;-63
2022/04/13 05:29:14;;;;;;;67.28;28.05;;;;;;;;;;4954816;29;20078;-63
2022/04/13 05:31:40;;;;;;;64.95;30.38;;;;;;;;;;4954815;29;20059;-63
2022/04/13 05:34:08;;;;;;;62.25;28.60;;;;;;;;;;4937553;29;20165;-63
2022/04/13 05:36:34;;;;;;;70.95;32.50;;;;;;;;;;4954688;29;20035;-62
2022/04/13 05:39:00;;;;;;;61.53;28.20;;;;;;;;;;4954447;29;20166;-62
2022/04/13 05:41:26;;;;;;;53.78;29.00;;;;;;;;;;4957161;28;20078;-63
2022/04/13 05:43:53;;;;;;;71.38;34.03;;;;;;;;;;4941101;29;20078;-63
2022/04/13 05:46:19;;;;;;;64.95;31.88;;;;;;;;;;4958469;29;20019;-63
2022/04/13 05:48:47;;;;;;;67.20;33.92;;;;;;;;;;4958522;29;20090;-63
2022/04/13 05:51:13;;;;;;;62.05;33.38;;;;;;;;;;4958513;29;20086;-63
2022/04/13 05:53:39;;;;;;;63.08;34.67;;;;;;;;;;4958410;29;20023;-63
2022/04/13 05:56:06;;;;;;;75.68;35.50;;;;;;;;;;4958370;29;20051;-62
2022/04/13 05:58:32;;;;;;;79.60;36.78;;;;;;;;;;4957914;29;20047;-61
2022/04/13 06:00:58;;;;;;;65.25;34.80;;;;;;;;;;4958191;29;20085;-61
2022/04/13 06:03:25;;;;;;;58.40;28.23;;;;;;;;;;4958234;29;20035;-62
2022/04/13 06:05:51;;;;;;;51.10;26.90;;;;;;;;;;4958191;29;20035;-62
2022/04/13 06:08:18;;;;;;;58.42;27.58;;;;;;;;;;4957977;29;20119;-62
2022/04/13 06:10:44;;;;;;;44.58;21.58;;;;;;;;;;4934597;29;20035;-62
2022/04/13 06:13:10;;;;;;;45.13;22.08;;;;;;;;;;4937772;29;20380;-62
2022/04/13 06:15:37;;;;;;;38.95;16.05;;;;;;;;;;4937442;29;20395;-62
2022/04/13 06:18:04;;;;;;;29.05;13.88;;;;;;;;;;4937521;29;20110;-62
2022/04/13 06:20:30;;;;;;;38.58;14.05;;;;;;;;;;4937557;29;20095;-64
2022/04/13 06:22:56;;;;;;;39.45;13.07;;;;;;;;;;4937426;29;20364;-63
2022/04/13 06:25:22;;;;;;;20.95;12.10;;;;;;;;;;4920152;29;20035;-64
2022/04/13 06:27:49;;;;;;;29.42;10.98;;;;;;;;;;4934753;29;20035;-62
2022/04/13 06:30:15;;;;;;;22.42;11.25;;;;;;;;;;4919697;29;20026;-64
2022/04/13 06:32:42;;;;;;;14.60;9.00;;;;;;;;;;4937685;29;20055;-63
2022/04/13 06:35:11;;;;;;;19.50;10.30;;;;;;;;;;4920282;29;20031;-62
2022/04/13 06:37:38;;;;;;;19.70;9.52;;;;;;;;;;4937630;29;20468;-62
2022/04/13 06:40:05;;;;;;;19.48;10.35;;;;;;;;;;4920000;29;20034;-63
2022/04/13 06:42:36;;;;;;;16.20;8.30;;;;;;;;;;4920940;29;20028;-67
2022/04/13 06:45:03;;;;;;;29.80;8.35;;;;;;;;;;4952592;29;20082;-63
2022/04/13 06:47:29;;;;;;;15.73;8.65;;;;;;;;;;4940145;29;20050;-64
2022/04/13 06:49:56;;;;;;;13.93;7.88;;;;;;;;;;4957390;29;20027;-63
2022/04/13 06:52:22;;;;;;;14.60;8.32;;;;;;;;;;4956427;28;20074;-63
2022/04/13 06:54:48;;;;;;;15.05;6.85;;;;;;;;;;4940105;29;20027;-62
2022/04/13 06:57:15;;;;;;;15.30;6.55;;;;;;;;;;4956811;29;20036;-64
2022/04/13 06:59:41;;;;;;;22.63;8.48;;;;;;;;;;4957151;29;20103;-66
2022/04/13 07:02:12;;;;;;;15.68;8.55;;;;;;;;;;4957339;29;20027;-63
2022/04/13 07:04:38;;;;;;;13.88;7.60;;;;;;;;;;4939881;29;20544;-63
2022/04/13 07:07:04;;;;;;;11.95;7.22;;;;;;;;;;4956881;29;20027;-64
2022/04/13 07:09:31;;;;;;;12.23;7.20;;;;;;;;;;4956674;29;20031;-64
2022/04/13 07:11:57;;;;;;;16.50;8.73;;;;;;;;;;4956774;29;20027;-65
2022/04/13 07:14:23;;;;;;;13.98;7.82;;;;;;;;;;4956732;29;20110;-64
2022/04/13 07:16:49;;;;;;;15.57;8.13;;;;;;;;;;4951749;29;20041;-69
2022/04/13 07:19:15;;;;;;;15.60;7.82;;;;;;;;;;4928362;29;20127;-65
2022/04/13 07:21:42;;;;;;;15.65;7.38;;;;;;;;;;4936985;29;20032;-65
2022/04/13 07:24:08;;;;;;;11.05;6.25;;;;;;;;;;4937331;29;20036;-71
2022/04/13 07:26:34;;;;;;;13.57;7.00;;;;;;;;;;4937365;29;20072;-67
2022/04/13 07:29:00;;;;;;;18.77;7.22;;;;;;;;;;4936452;29;20031;-66
2022/04/13 07:31:27;;;;;;;9.25;6.57;;;;;;;;;;4920154;29;20466;-67
2022/04/13 07:33:53;;;;;;;13.45;7.03;;;;;;;;;;4936953;29;20043;-71
2022/04/13 07:36:20;;;;;;;13.48;5.20;;;;;;;;;;4937106;29;20031;-73
2022/04/13 07:38:46;;;;;;;6.85;4.55;;;;;;;;;;4935169;29;20036;-70
2022/04/13 07:41:12;;;;;;;8.45;4.47;;;13.90;78.60;;;;;;4939984;29;20024;-69
2022/04/13 07:43:38;;;;;;;9.23;4.85;;;13.90;80.00;;;;;;4956034;29;20031;-69
2022/04/13 07:46:03;;;;;;;24.00;6.22;;;14.10;79.70;;;;;;4937207;29;20477;-66
2022/04/13 07:48:30;;;;;;;5.40;3.88;;;14.30;78.50;;;;;;4936746;29;20046;-66
2022/04/13 07:50:56;;;;;;;8.10;4.32;;;14.30;79.00;;;;;;4936600;29;20027;-69
2022/04/13 07:53:22;;;;;;;6.75;4.38;;;14.40;78.10;;;;;;4935380;29;20450;-68
2022/04/13 07:55:48;;;;;;;4.90;4.00;;;14.60;77.90;;;;;;4936871;29;20028;-72
2022/04/13 07:58:14;;;;;;;9.70;3.58;;;14.70;77.50;;;;;;4934937;29;20067;-67
2022/04/13 08:00:40;;;;;;;9.07;4.18;;;;;;;;;;4936303;29;20035;-69
2022/04/13 08:03:06;;;;;;;7.97;3.75;;;15.10;74.20;;;;;;4934861;29;20027;-68
2022/04/13 08:05:32;;;;;;;4.65;3.40;;;15.20;72.50;;;;;;4935738;29;20052;-68
2022/04/13 08:07:58;;;;;;;13.57;4.20;;;15.30;72.20;;;;;;4934288;29;20032;-70
2022/04/13 08:10:24;;;;;;;6.32;3.53;;;15.50;72.90;;;;;;4934733;29;20028;-69
2022/04/13 08:12:50;;;;;;;9.40;3.65;;;15.70;72.10;;;;;;4935576;29;20042;-68
2022/04/13 08:15:16;;;;;;;8.57;4.30;;;15.80;71.40;;;;;;4919333;29;20027;-68
2022/04/13 08:17:42;;;;;;;5.30;3.80;;;15.80;72.10;;;;;;4936354;29;20039;-67
2022/04/13 08:20:11;;;;;;;9.63;3.50;;;16.00;70.30;;;;;;4936344;29;20057;-70
2022/04/13 08:22:37;;;;;;;6.68;3.78;;;16.10;73.80;;;;;;4935801;29;20028;-66
2022/04/13 08:25:04;;;;;;;6.20;3.42;;;16.30;69.00;;;;;;4934827;29;20035;-66
2022/04/13 08:27:29;;;;;;;13.93;5.85;;;16.50;70.80;;;;;;4918587;29;20032;-66
2022/04/13 08:29:55;;;;;;;6.63;4.40;;;16.90;89.30;;;;;;4918823;29;20042;-64
2022/04/13 08:32:22;;;;;;;9.10;4.35;;;17.20;84.00;;;;;;4935896;29;20027;-66
2022/04/13 08:34:52;;;;;;;8.48;3.67;;;17.30;71.40;;;;;;4935981;29;20024;-67
2022/04/13 08:37:18;;;;;;;7.25;4.28;;;17.40;68.90;;;;;;4936134;29;20044;-69
2022/04/13 08:39:44;;;;;;;4.32;3.25;;;17.40;71.90;;;;;;4936047;29;20032;-67
2022/04/13 08:42:35;;;;;;;5.35;3.33;;;17.40;67.30;;;;;;4935968;29;20035;-67
2022/04/13 08:45:20;;;;;;;7.82;3.65;;;17.50;63.60;;;;;;4921804;29;20543;-69
2022/04/13 08:47:49;;;;;;;8.80;4.15;;;17.70;69.30;;;;;;4935752;29;20035;-66
2022/04/13 08:50:14;;;;;;;23.63;4.65;;;17.80;70.40;;;;;;4917937;29;20380;-68
2022/04/13 08:52:42;;;;;;;7.85;4.28;;;17.80;65.50;;;;;;4935197;29;20044;-68
2022/04/13 08:55:11;;;;;;;7.30;3.90;;;18.10;69.60;;;;;;4918697;29;20123;-68
2022/04/13 08:57:41;;;;;;;7.40;3.70;;;18.20;65.60;;;;;;4935902;29;20051;-66
2022/04/13 09:00:11;;;;;;;8.73;4.00;;;18.20;62.80;;;;;;4935721;29;20028;-67
2022/04/13 09:02:48;;;;;;;8.25;4.05;;;18.30;61.80;;;;;;4935411;29;20524;-70
2022/04/13 09:05:20;;;;;;;10.48;4.20;;;18.50;66.90;;;;;;4935413;29;20523;-68
2022/04/13 09:07:53;;;;;;;13.32;3.97;;;18.70;65.80;;;;;;4935982;29;20034;-69
2022/04/13 09:10:20;;;;;;;5.35;3.58;;;18.90;64.40;;;;;;4935646;29;20032;-66
2022/04/13 09:12:49;;;;;;;7.07;3.88;;;19.00;61.10;;;;;;4935474;29;20039;-69
2022/04/13 09:15:15;;;;;;;14.27;4.68;;;19.10;62.70;;;;;;4934400;29;20039;-67
2022/04/13 09:17:41;;;;;;;8.13;4.15;;;19.20;64.30;;;;;;4935735;29;20087;-67
2022/04/13 09:20:08;;;;;;;5.85;5.18;;;19.20;62.90;;;;;;4935682;29;20079;-66
2022/04/13 09:22:35;;;;;;;8.70;4.03;;;;;;;;;;4935587;29;20512;-67
2022/04/13 09:25:01;;;;;;;6.82;4.45;;;;;;;;;;4917926;29;20031;-67
2022/04/13 09:27:28;;;;;;;8.27;4.13;;;19.30;59.00;;;;;;4916663;29;20091;-66
2022/04/13 09:29:55;;;;;;;6.60;4.10;;;19.60;63.90;;;;;;4935610;29;20059;-66
2022/04/13 09:32:21;;;;;;;7.75;4.10;;;19.70;58.10;;;;;;4935244;29;20489;-66
2022/04/13 09:34:47;;;;;;;8.93;3.63;;;19.70;59.20;;;;;;4935580;29;20061;-67
2022/04/13 09:37:14;;;;;;;8.48;4.15;;;19.90;60.70;;;;;;4935149;29;20035;-66
2022/04/13 09:39:41;;;;;;;49.58;5.60;;;20.10;59.50;;;;;;4935422;29;20055;-66
2022/04/13 09:42:11;;;;;;;8.50;3.85;;;20.30;59.50;;;;;;4935292;29;20024;-67
2022/04/13 09:44:43;;;;;;;10.43;4.22;;;20.50;62.10;;;;;;4933927;29;20519;-68
2022/04/13 09:47:09;;;;;;;;;;;;;;;;;;4935084;29;20040;-66
2022/04/13 09:49:36;;;;;;;7.03;3.45;;;;;;;;;;4935179;29;19906;-65
2022/04/13 09:52:03;;;;;;;8.65;4.03;;;;;;;;;;4934946;29;20032;-65
2022/04/13 09:54:29;;;;;;;6.78;4.10;;;;;;;;;;4935096;29;20076;-65
2022/04/13 09:56:55;;;;;;;28.92;6.53;;;;;;;;;;4934952;29;20028;-66
2022/04/13 09:59:29;;;;;;;11.50;4.60;;;20.60;56.90;;;;;;4935347;29;20123;-66
2022/04/13 10:01:56;;;;;;;8.82;3.75;;;;;;;;;;4935131;29;20532;-66
2022/04/13 10:04:25;;;;;;;10.43;4.88;;;;;;;;;;4935370;29;20027;-67
2022/04/13 10:06:52;;;;;;;6.93;4.35;;;;;;;;;;4935333;29;20353;-66
2022/04/13 10:09:19;;;;;;;11.32;5.22;;;;;;;;;;4918228;29;20038;-66
2022/04/13 10:12:03;;;;;;;6.53;5.00;;;21.40;55.90;;;;;;4935254;29;20028;-67
2022/04/13 10:14:30;;;;;;;30.48;5.55;;;21.90;54.80;;;;;;4935322;29;20115;-66
2022/04/13 10:17:06;;;;;;;18.45;5.18;;;21.90;57.30;;;;;;4935131;29;20028;-67
2022/04/13 10:19:32;;;;;;;8.05;4.45;;;22.00;56.80;;;;;;4934534;29;20030;-67
2022/04/13 10:21:59;;;;;;;7.53;5.07;;;22.20;53.20;;;;;;4954214;29;20019;-67
2022/04/13 10:24:27;;;;;;;11.18;4.50;;;21.90;51.20;;;;;;4954264;29;20031;-65
2022/04/13 10:27:12;;;;;;;7.47;5.20;;;22.30;54.60;;;;;;4954327;28;20456;-66
2022/04/13 10:29:41;;;;;;;12.40;4.60;;;22.90;54.00;;;;;;4957750;29;20023;-67
2022/04/13 10:32:12;;;;;;;7.80;4.80;;;;;;;;;;4957598;29;20035;-67
2022/04/13 10:34:48;;;;;;;9.52;5.28;;;;;;;;;;4957446;29;20027;-67
2022/04/13 10:37:16;;;;;;;9.80;4.85;;;;;;;;;;4956564;29;20031;-67
2022/04/13 10:39:45;;;;;;;8.85;4.43;;;;;;;;;;4955995;29;20019;-67
2022/04/13 10:42:11;;;;;;;7.25;4.45;;;;;;;;;;4939609;29;20038;-67
2022/04/13 10:44:51;;;;;;;5.53;4.50;;;;;;;;;;4956626;29;20031;-67
2022/04/13 10:47:19;;;;;;;9.73;4.93;;;23.50;53.30;;;;;;4956817;29;20028;-68
2022/04/13 10:49:58;;;;;;;8.77;4.85;;;;;;;;;;4957349;29;20364;-71
2022/04/13 10:52:48;;;;;;;6.18;3.85;;;26.60;41.60;;;;;;4957320;29;20106;-64
2022/04/13 10:55:15;;;;;;;11.50;4.80;;;27.30;44.90;;;;;;4946376;29;20048;-65
2022/04/13 10:57:44;;;;;;;7.00;5.05;;;;;;;;;;4956993;29;20088;-64
2022/04/13 11:00:10;;;;;;;24.10;4.78;;;;;;;;;;4957116;29;20095;-66
2022/04/13 11:02:54;;;;;;;11.82;5.18;;;;;;;;;;4957234;29;20599;-66
2022/04/13 11:05:22;;;;;;;7.60;4.60;;;;;;;;;;4956688;29;20380;-66
2022/04/13 11:07:51;;;;;;;9.05;5.40;;;;;;;;;;4957097;29;20078;-66
2022/04/13 11:10:19;;;;;;;6.80;4.53;;;30.50;41.00;;;;;;4957245;29;20376;-66
2022/04/13 11:12:46;;;;;;;7.63;4.15;;;;;;;;;;4939162;29;20383;-66
2022/04/13 11:15:12;;;;;;;10.70;4.13;;;;;;;;;;4937670;29;20098;-66
2022/04/13 11:17:47;;;;;;;13.88;4.63;;;;;;;;;;4956492;29;20031;-67
2022/04/13 11:20:19;;;;;;;10.25;4.82;;;;;;;;;;4955175;29;20031;-66
2022/04/13 11:22:45;;;;;;;8.37;5.07;;;;;;;;;;4954826;29;20035;-66
2022/04/13 11:25:31;;;;;;;6.57;4.65;;;32.20;36.40;;;;;;4956483;29;20030;-66
2022/04/13 11:27:57;;;;;;;5.07;4.18;;;31.80;37.20;;;;;;4956381;29;20039;-66
2022/04/13 11:30:53;;;;;;;11.65;5.15;;;32.00;37.60;;;;;;4956465;29;20106;-67
2022/04/13 11:33:19;;;;;;;9.32;4.72;;;32.20;37.40;;;;;;4938787;29;20495;-67
2022/04/13 11:35:45;;;;;;;7.20;4.30;;;32.10;36.80;;;;;;4956340;29;20032;-66
2022/04/13 11:38:11;;;;;;;7.30;4.47;;;31.90;37.40;;;;;;4955907;28;20031;-66
2022/04/13 11:41:04;;;;;;;31.40;5.35;;;32.60;36.80;;;;;;4956628;29;20104;-65
2022/04/13 11:43:30;;;;;;;5.32;3.55;;;;;;;;;;4956424;29;20031;-66
2022/04/13 11:45:59;;;;;;;6.45;3.80;;;33.20;35.50;;;;;;4956354;29;20058;-67
2022/04/13 11:48:35;;;;;;;5.03;3.60;;;33.00;41.20;;;;;;4956375;29;20376;-67
2022/04/13 11:51:25;;;;;;;5.35;3.97;;;34.00;45.00;;;;;;4939075;29;20027;-67
2022/04/13 11:53:55;;;;;;;7.07;3.42;;;34.00;47.80;;;;;;4956196;29;20039;-67
2022/04/13 11:56:40;;;;;;;7.15;4.07;;;;;;;;;;4956174;29;20042;-67
2022/04/13 11:59:06;;;;;;;50.65;7.00;;;34.20;34.90;;;;;;4955619;29;20097;-66
2022/04/13 12:01:33;;;;;;;5.35;3.55;;;35.30;35.70;;;;;;4956013;29;20476;-67
2022/04/13 12:04:03;;;;;;;8.23;3.40;;;;;;;;;;4956124;29;20027;-67
2022/04/13 12:06:30;;;;;;;7.13;3.78;;;;;;;;;;4956038;29;20097;-67
2022/04/13 12:08:58;;;;;;;5.93;3.20;;;;;;;;;;4956013;29;20035;-67
2022/04/13 12:11:39;;;;;;;8.60;3.75;;;35.70;34.30;;;;;;4938821;29;20072;-67
2022/04/13 12:14:05;;;;;;;6.82;3.78;;;;;;;;;;4955715;29;20035;-67
2022/04/13 12:16:33;;;;;;;6.53;3.15;;;;;;;;;;4955957;29;20059;-67
2022/04/13 12:19:09;;;;;;;5.90;3.20;;;;;;;;;;4955602;29;20034;-64
2022/04/13 12:21:40;;;;;;;17.55;4.05;;;35.70;36.10;;;;;;4955582;29;20042;-67
2022/04/13 12:24:08;;;;;;;6.18;3.40;;;;;;;;;;4941220;29;20039;-67
2022/04/13 12:26:36;;;;;;;4.75;3.03;;;37.30;32.50;;;;;;4934507;29;20177;-67
2022/04/13 12:29:20;;;;;;;6.80;3.53;;;37.30;34.50;;;;;;4935152;29;20030;-68
2022/04/13 12:31:48;;;;;;;4.38;3.38;;;;;;;;;;4933839;29;20035;-68
2022/04/13 12:34:16;;;;;;;12.48;4.32;;;37.70;33.90;;;;;;4934854;29;20016;-68
2022/04/13 12:36:48;;;;;;;6.32;3.38;;;38.10;31.00;;;;;;4934878;29;20384;-68
2022/04/13 12:39:13;;;;;;;4.22;2.80;;;38.00;31.40;;;;;;4934933;29;20035;-68
2022/04/13 12:41:39;;;;;;;7.90;2.75;;;38.20;30.00;;;;;;4920249;29;20028;-68
2022/04/13 12:44:07;;;;;;;6.90;4.05;;;38.50;31.40;;;;;;4953633;29;20456;-68
2022/04/13 12:46:34;;;;;;;6.03;2.53;;;37.10;32.00;;;;;;4938123;29;20039;-68
2022/04/13 12:49:04;;;;;;;7.00;3.15;;;37.40;31.50;;;;;;4952860;29;20106;-68
2022/04/13 12:51:32;;;;;;;8.10;2.55;;;37.80;31.60;;;;;;4930868;29;20166;-68
2022/04/13 12:54:07;;;;;;;20.02;3.75;;;38.10;32.00;;;;;;4954787;29;20118;-68
2022/04/13 12:56:35;;;;;;;4.50;2.97;;;39.40;32.50;;;;;;4954633;29;20380;-68
2022/04/13 12:59:02;;;;;;;3.60;2.50;;;39.50;30.90;;;;;;4954834;29;20051;-65
2022/04/13 13:01:36;;;;;;;4.13;3.13;;;38.10;30.60;;;;;;4954488;29;20083;-69
2022/04/13 13:04:07;;;;;;;4.47;2.25;;;36.90;30.30;;;;;;4954893;29;20023;-68
2022/04/13 13:06:39;;;;;;;3.08;2.75;;;37.90;31.70;;;;;;4954156;29;20027;-68
2022/04/13 13:09:06;;;;;;;6.43;2.60;;;37.40;29.70;;;;;;4954569;29;20042;-69
2022/04/13 13:11:37;;;;;;;2.97;2.50;;;37.60;30.10;;;;;;4954413;29;20110;-68
2022/04/13 13:14:06;;;;;;;6.05;3.90;;;38.50;30.20;;;;;;4954685;29;20486;-68
2022/04/13 13:16:35;;;;;;;4.47;2.67;;;39.70;30.40;;;;;;4954527;29;20464;-66
2022/04/13 13:19:11;;;;;;;5.13;2.60;;;39.70;29.10;;;;;;4954520;29;20035;-66
2022/04/13 13:21:57;;;;;;;2.88;2.17;;;40.60;29.30;;;;;;4922237;29;20040;-68
2022/04/13 13:24:27;;;;;;;5.05;3.63;;;40.50;28.90;;;;;;4935176;29;20059;-65
2022/04/13 13:26:53;;;;;;;2.60;2.40;;;40.80;30.50;;;;;;4935892;29;20532;-64
2022/04/13 13:29:18;;;;;;;5.07;2.67;;;41.20;30.00;;;;;;4935014;29;20035;-64
2022/04/13 13:31:44;;;;;;;7.15;4.03;;;40.80;29.20;;;;;;4935637;29;20039;-64
2022/04/13 13:34:10;;;;;;;4.32;3.15;;;40.10;28.30;;;;;;4936284;29;20036;-64
2022/04/13 13:36:36;;;;;;;2.95;2.42;;;39.30;28.00;;;;;;4954360;29;20039;-66
2022/04/13 13:39:02;;;;;;;23.38;11.02;;;38.20;37.60;;;;;;4954596;29;20047;-67
2022/04/13 13:41:29;;;;;;;7.13;3.28;;;39.30;29.20;;;;;;4954459;29;20433;-66
2022/04/13 13:43:55;;;;;;;12.07;3.10;;;40.20;32.40;;;;;;4954421;29;20108;-67
2022/04/13 13:46:25;;;;;;;3.90;2.67;;;40.40;57.40;;;;;;4937309;29;20126;-67
2022/04/13 13:48:51;;;;;;;3.57;2.70;;;41.10;29.20;;;;;;4954637;29;20535;-66
2022/04/13 13:51:17;;;;;;;3.30;2.10;;;;;;;;;;4954346;29;20475;-67
2022/04/13 13:53:48;;;;;;;5.25;3.58;;;41.60;46.70;;;;;;4941166;29;20035;-65